Time;durP1;ratioP1;P1;durP2;ratioP2;P2;SDS_P1;SDS_P2;PMS_P1;PMS_P2;Temp;Humidity;BMP_temperature;BMP_pressure;BME280_temperature;BME280_humidity;BME280_pressure;Samples;Min_cycle;Max_cycle;Signal;HPM_P1;HPM_P2
2021/07/10 00:00:17;;;;;;;24.40;17.40;;;;;;;;;;5034123;28;20025;-58
2021/07/10 00:02:43;;;;;;;24.80;16.90;;;;;;;;;;5034155;28;20022;-57
2021/07/10 00:05:11;;;;;;;24.05;16.65;;;;;;;;;;5035713;28;20030;-59
2021/07/10 00:07:37;;;;;;;21.80;16.50;;;;;;;;;;5036354;28;20049;-58
2021/07/10 00:10:07;;;;;;;22.33;16.70;;;;;;;;;;5035961;28;20025;-57
2021/07/10 00:12:33;;;;;;;22.38;15.73;;;;;;;;;;5034707;28;20063;-59
2021/07/10 00:14:59;;;;;;;23.63;16.45;;;;;;;;;;5034095;28;20048;-58
2021/07/10 00:17:25;;;;;;;23.02;17.13;;;;;;;;;;5033708;28;20477;-58
2021/07/10 00:19:52;;;;;;;24.63;17.20;;;;;;;;;;5035288;28;20029;-59
2021/07/10 00:22:21;;;;;;;23.48;17.20;;;;;;;;;;5035718;28;20026;-57
2021/07/10 00:24:47;;;;;;;24.45;18.17;;;;;;;;;;5035520;28;20028;-59
2021/07/10 00:27:13;;;;;;;21.40;15.80;;;;;;;;;;5033736;28;20022;-59
2021/07/10 00:29:39;;;;;;;22.45;16.77;;;;;;;;;;5033819;28;20465;-59
2021/07/10 00:32:06;;;;;;;23.52;17.20;;;;;;;;;;5035111;28;20034;-55
2021/07/10 00:34:32;;;;;;;25.00;18.60;;;;;;;;;;5034864;28;20032;-57
2021/07/10 00:36:58;;;;;;;23.52;17.60;;;;;;;;;;5034799;28;20029;-58
2021/07/10 00:39:24;;;;;;;22.48;16.42;;;;;;;;;;5033643;28;20056;-58
2021/07/10 00:41:50;;;;;;;25.98;17.88;;;;;;;;;;5034547;28;20041;-58
2021/07/10 00:44:16;;;;;;;24.05;18.00;;;;;;;;;;5033854;28;20028;-58
2021/07/10 00:46:42;;;;;;;24.42;18.33;;;;;;;;;;5034529;28;20436;-57
2021/07/10 00:49:08;;;;;;;22.55;16.80;;;;;;;;;;5034981;28;20500;-56
2021/07/10 00:51:34;;;;;;;23.67;18.13;;;;;;;;;;5033412;28;20459;-58
2021/07/10 00:54:03;;;;;;;24.02;17.48;;;;;;;;;;5034569;28;20515;-59
2021/07/10 00:56:29;;;;;;;25.42;17.35;;;;;;;;;;5034375;28;20057;-59
2021/07/10 00:58:55;;;;;;;24.02;17.90;;;;;;;;;;5034457;28;20033;-59
2021/07/10 01:01:21;;;;;;;25.48;17.95;;;;;;;;;;5033363;28;20032;-56
2021/07/10 01:03:47;;;;;;;27.00;18.58;;;;;;;;;;5032472;28;20391;-57
2021/07/10 01:06:14;;;;;;;23.50;17.92;;;;;;;;;;5032925;28;20032;-59
2021/07/10 01:08:41;;;;;;;24.98;16.65;;;;;;;;;;5034225;28;20025;-58
2021/07/10 01:11:09;;;;;;;25.80;19.60;;;;;;;;;;5034139;28;20028;-60
2021/07/10 01:13:35;;;;;;;24.75;18.00;;;;;;;;;;5034394;28;20351;-59
2021/07/10 01:16:01;;;;;;;25.38;18.55;;;;;;;;;;5033998;28;20022;-57
2021/07/10 01:18:27;;;;;;;24.33;18.45;;;;;;;;;;5032953;28;20037;-59
2021/07/10 01:20:53;;;;;;;23.38;17.20;;;;;;;;;;5033952;28;20029;-58
2021/07/10 01:23:20;;;;;;;24.55;18.08;;;;;;;;;;5033979;28;20036;-60
2021/07/10 01:25:46;;;;;;;24.05;17.70;;;;;;;;;;5032535;28;20028;-59
2021/07/10 01:28:16;;;;;;;26.50;19.45;;;;;;;;;;5034186;28;20026;-59
2021/07/10 01:30:43;;;;;;;23.17;17.45;;;;;;;;;;5034088;28;20048;-60
2021/07/10 01:33:09;;;;;;;24.48;16.58;;;;;;;;;;5033981;28;20038;-59
2021/07/10 01:35:36;;;;;;;23.92;18.40;;;;;;;;;;5032723;28;20040;-55
2021/07/10 01:38:03;;;;;;;23.63;17.77;;;;;;;;;;5033727;28;20034;-58
2021/07/10 01:43:06;;;;;;;25.58;18.23;;;;;;;;;;5031699;28;20424;-55
2021/07/10 01:45:35;;;;;;;24.42;18.15;;;;;;;;;;5032957;28;20029;-57
2021/07/10 01:48:01;;;;;;;26.00;18.63;;;;;;;;;;5033158;28;20033;-57
2021/07/10 01:50:28;;;;;;;24.00;17.75;;;;;;;;;;5033240;28;20025;-57
2021/07/10 01:52:54;;;;;;;23.98;18.65;;;;;;;;;;5033239;28;20159;-57
2021/07/10 01:55:20;;;;;;;27.80;19.95;;;;;;;;;;5032827;28;20072;-53
2021/07/10 01:57:47;;;;;;;26.65;21.25;;;;;;;;;;5015398;28;20026;-56
2021/07/10 02:00:21;;;;;;;27.42;20.77;;;;;;;;;;5014964;28;20540;-60
2021/07/10 02:02:47;;;;;;;27.75;21.38;;;;;;;;;;5015276;28;20024;-52
2021/07/10 02:05:13;;;;;;;26.48;20.80;;;;;;;;;;5032711;28;20091;-56
2021/07/10 02:07:40;;;;;;;31.33;23.98;;;;;;;;;;5033074;28;20025;-58
2021/07/10 02:10:10;;;;;;;28.50;21.77;;;;;;;;;;5032778;28;20029;-57
2021/07/10 02:12:36;;;;;;;29.13;22.35;;;;;;;;;;5032656;28;20112;-57
2021/07/10 02:15:03;;;;;;;29.08;23.58;;;;;;;;;;5014966;28;20068;-58
2021/07/10 02:17:29;;;;;;;29.33;24.55;;;;;;;;;;5032457;28;20033;-59
2021/07/10 02:19:55;;;;;;;29.92;23.58;;;;;;;;;;5015310;28;20029;-56
2021/07/10 02:22:20;;;;;;;32.03;24.88;;;;;;;;;;5015308;28;20472;-58
2021/07/10 02:24:46;;;;;;;29.75;22.90;;;;;;;;;;5032713;28;20026;-59
2021/07/10 02:27:12;;;;;;;29.73;23.70;;;;;;;;;;5032486;28;20374;-57
2021/07/10 02:29:38;;;;;;;29.40;23.85;;;;;;;;;;5032794;28;20036;-58
2021/07/10 02:32:05;;;;;;;31.17;23.85;;;;;;;;;;5014854;28;20029;-58
2021/07/10 02:34:31;;;;;;;32.00;23.70;;;;;;;;;;5015023;28;20641;-58
2021/07/10 02:36:57;;;;;;;30.52;23.65;;;;;;;;;;5014832;28;20029;-58
2021/07/10 02:39:23;;;;;;;30.98;23.83;;;;;;;;;;5032342;28;20409;-55
2021/07/10 02:41:49;;;;;;;30.35;22.98;;;;;;;;;;5033043;28;20029;-58
2021/07/10 02:44:15;;;;;;;29.88;23.65;;;;;;;;;;5033884;28;20161;-57
2021/07/10 02:46:41;;;;;;;31.33;22.10;;;;;;;;;;5032198;28;20104;-53
2021/07/10 02:49:07;;;;;;;29.45;22.42;;;;;;;;;;5015035;28;20056;-58
2021/07/10 02:51:33;;;;;;;31.60;24.75;;;;;;;;;;5014875;28;20496;-58
2021/07/10 02:53:59;;;;;;;30.42;22.88;;;;;;;;;;5032463;28;20033;-58
2021/07/10 02:56:25;;;;;;;34.17;23.58;;;;;;;;;;5031913;28;20029;-57
2021/07/10 02:58:52;;;;;;;30.83;24.40;;;;;;;;;;5032535;28;20388;-57
2021/07/10 03:01:18;;;;;;;29.85;23.00;;;;;;;;;;5032107;28;20032;-60
2021/07/10 03:03:45;;;;;;;29.80;23.58;;;;;;;;;;5014647;28;20022;-57
2021/07/10 03:06:11;;;;;;;31.48;23.65;;;;;;;;;;5031961;28;20022;-58
2021/07/10 03:08:39;;;;;;;30.17;23.00;;;;;;;;;;5014502;28;20032;-57
2021/07/10 03:11:05;;;;;;;31.23;24.30;;;;;;;;;;5032246;28;20030;-57
2021/07/10 03:13:31;;;;;;;31.15;24.10;;;;;;;;;;5032058;28;20025;-58
2021/07/10 03:15:57;;;;;;;30.83;24.55;;;;;;;;;;5031859;28;20104;-54
2021/07/10 03:18:23;;;;;;;34.03;24.58;;;;;;;;;;5032225;28;20490;-57
2021/07/10 03:20:49;;;;;;;36.78;26.67;;;;;;;;;;5031808;28;20059;-59
2021/07/10 03:23:15;;;;;;;30.92;24.05;;;;;;;;;;5031976;28;20470;-57
2021/07/10 03:25:47;;;;;;;31.08;24.33;;;;;;;;;;5014448;28;20079;-58
2021/07/10 03:28:13;;;;;;;29.70;23.40;;;;;;;;;;5035983;28;20504;-59
2021/07/10 03:30:39;;;;;;;31.02;23.90;;;;;;;;;;5017929;28;20033;-57
2021/07/10 03:33:05;;;;;;;29.23;23.02;;;;;;;;;;5018246;28;20080;-58
2021/07/10 03:35:31;;;;;;;32.90;24.25;;;;;;;;;;5035657;28;20428;-59
2021/07/10 03:38:00;;;;;;;31.80;23.02;;;;;;;;;;5017982;28;20105;-57
2021/07/10 03:40:27;;;;;;;29.58;23.85;;;;;;;;;;5017928;28;20051;-58
2021/07/10 03:42:54;;;;;;;29.80;23.45;;;;;;;;;;5018023;28;20432;-60
2021/07/10 03:45:20;;;;;;;29.67;23.75;;;;;;;;;;5017847;28;20052;-56
2021/07/10 03:47:47;;;;;;;31.15;23.88;;;;;;;;;;5035657;28;20112;-57
2021/07/10 03:50:13;;;;;;;31.42;23.60;;;;;;;;;;5035604;28;20109;-59
2021/07/10 03:52:40;;;;;;;32.33;24.55;;;;;;;;;;5017614;28;20058;-59
2021/07/10 03:55:07;;;;;;;31.90;24.55;;;;;;;;;;5017619;28;20037;-59
2021/07/10 03:57:34;;;;;;;30.25;24.33;;;;;;;;;;5035624;28;20032;-58
2021/07/10 04:00:00;;;;;;;31.13;24.05;;;;;;;;;;5018169;28;20021;-58
2021/07/10 04:02:26;;;;;;;35.70;27.02;;;;;;;;;;5035299;28;20022;-59
2021/07/10 04:04:52;;;;;;;32.65;25.13;;;;;;;;;;5035314;28;20048;-60
2021/07/10 04:07:18;;;;;;;30.85;24.85;;;;;;;;;;5017641;28;20044;-59
2021/07/10 04:09:44;;;;;;;32.22;24.63;;;;;;;;;;5035338;28;20025;-59
2021/07/10 04:12:10;;;;;;;32.22;24.50;;;;;;;;;;5035504;28;20101;-58
2021/07/10 04:14:37;;;;;;;31.98;24.00;;;;;;;;;;5035498;28;20404;-59
2021/07/10 04:17:03;;;;;;;31.77;25.88;;;;;;;;;;5034615;28;20029;-56
2021/07/10 04:19:29;;;;;;;35.15;26.50;;;;;;;;;;5017432;28;20112;-58
2021/07/10 04:21:55;;;;;;;36.92;25.70;;;;;;;;;;5017269;28;20099;-56
2021/07/10 04:24:21;;;;;;;31.60;24.42;;;;;;;;;;5035094;28;20076;-60
2021/07/10 04:26:47;;;;;;;31.52;25.17;;;;;;;;;;5017289;28;20362;-59
2021/07/10 04:29:13;;;;;;;29.60;22.30;;;;;;;;;;5017227;28;20045;-59
2021/07/10 04:31:39;;;;;;;29.65;22.80;;;;;;;;;;5034853;28;20500;-59
2021/07/10 04:34:05;;;;;;;28.05;22.33;;;;;;;;;;5034831;28;20101;-56
2021/07/10 04:36:31;;;;;;;29.42;22.70;;;;;;;;;;5034267;28;20033;-58
2021/07/10 04:38:57;;;;;;;28.80;21.02;;;;;;;;;;5015821;28;20022;-57
2021/07/10 04:41:23;;;;;;;27.40;21.45;;;;;;;;;;5016861;28;20033;-55
2021/07/10 04:43:49;;;;;;;26.58;21.05;;;;;;;;;;5034631;28;20021;-59
2021/07/10 04:46:15;;;;;;;28.58;21.38;;;;;;;;;;5034206;28;20024;-55
2021/07/10 04:48:41;;;;;;;29.10;21.98;;;;;;;;;;5034464;28;20044;-59
2021/07/10 04:51:09;;;;;;;29.02;22.92;;;;;;;;;;5034684;28;20029;-57
2021/07/10 04:53:35;;;;;;;26.65;21.17;;;;;;;;;;5034367;28;20029;-58
2021/07/10 04:56:01;;;;;;;29.35;23.92;;;;;;;;;;5016364;28;20033;-58
2021/07/10 04:58:27;;;;;;;33.08;24.08;;;;;;;;;;5034296;28;20017;-57
2021/07/10 05:00:53;;;;;;;30.30;24.08;;;;;;;;;;5031042;28;20021;-60
2021/07/10 05:03:19;;;;;;;28.83;24.77;;;;;;;;;;5007478;28;20094;-61
2021/07/10 05:05:45;;;;;;;30.35;24.40;;;;;;;;;;5006196;28;20105;-61
2021/07/10 05:08:11;;;;;;;31.83;25.92;;;;;;;;;;4996712;28;20022;-61
2021/07/10 05:10:37;;;;;;;32.00;25.60;;;;;;;;;;5011409;28;20029;-61
2021/07/10 05:13:04;;;;;;;32.97;26.17;;;;;;;;;;5034038;28;20033;-61
2021/07/10 05:15:30;;;;;;;30.77;24.05;;;;;;;;;;5033541;28;20052;-60
2021/07/10 05:17:56;;;;;;;29.67;24.55;;;;;;;;;;5028186;28;20412;-61
2021/07/10 05:20:22;;;;;;;33.50;27.88;;;;;;;;;;5013936;28;20057;-61
2021/07/10 05:22:48;;;;;;;33.45;27.35;;;;;;;;;;4996367;28;20054;-61
2021/07/10 05:25:14;;;;;;;35.58;27.60;;;;;;;;;;5013807;28;20053;-62
2021/07/10 05:27:40;;;;;;;33.85;27.10;;;;;;;;;;4996257;28;20022;-61
2021/07/10 05:30:17;;;;;;;30.98;25.08;;;;;;;;;;4996118;28;20021;-61
2021/07/10 05:32:43;;;;;;;36.08;25.88;;;;;;;;;;5013674;28;20029;-61
2021/07/10 05:35:09;;;;;;;32.35;26.15;;;;;;;;;;5002078;28;20029;-61
2021/07/10 05:37:36;;;;;;;32.25;25.30;;;;;;;;;;5015502;28;20021;-61
2021/07/10 05:40:02;;;;;;;33.05;27.00;;;;;;;;;;5033398;28;20026;-63
2021/07/10 05:42:27;;;;;;;33.30;25.67;;;;;;;;;;5033016;28;20041;-61
2021/07/10 05:44:53;;;;;;;34.80;26.85;;;;;;;;;;5015635;28;20135;-61
2021/07/10 05:47:19;;;;;;;32.97;27.95;;;;;;;;;;5015621;28;20502;-60
2021/07/10 05:49:45;;;;;;;35.38;28.25;;;;;;;;;;5032727;28;20041;-61
2021/07/10 05:52:11;;;;;;;37.33;30.58;;;;;;;;;;5015672;28;20036;-60
2021/07/10 05:54:37;;;;;;;39.03;31.60;;;;;;;;;;5033044;28;20496;-57
2021/07/10 05:57:03;;;;;;;34.53;28.45;;;;;;;;;;5014864;28;20031;-54
2021/07/10 05:59:29;;;;;;;35.35;28.35;;;;;;;;;;5015296;28;20120;-56
2021/07/10 06:01:55;;;;;;;36.97;29.88;;;;;;;;;;5015414;28;20113;-58
2021/07/10 06:04:21;;;;;;;34.30;27.70;;;;;;;;;;5015288;28;20022;-56
2021/07/10 06:06:47;;;;;;;36.33;28.90;;;;;;;;;;5033031;28;20025;-56
2021/07/10 06:09:13;;;;;;;36.92;29.38;;;;;;;;;;5015169;28;20091;-56
2021/07/10 06:11:39;;;;;;;36.20;29.15;;;;;;;;;;5032788;28;20473;-55
2021/07/10 06:14:08;;;;;;;33.15;27.52;;;;;;;;;;5015478;28;20026;-55
2021/07/10 06:16:34;;;;;;;38.42;28.70;;;;;;;;;;5032521;28;20041;-56
2021/07/10 06:19:00;;;;;;;35.25;29.05;;;;;;;;;;5032818;28;20029;-56
2021/07/10 06:21:26;;;;;;;35.13;29.42;;;;;;;;;;5032483;28;20074;-55
2021/07/10 06:23:53;;;;;;;33.33;27.25;;;;;;;;;;5015192;28;20028;-57
2021/07/10 06:26:20;;;;;;;36.63;28.67;;;;;;;;;;5032410;28;20021;-56
2021/07/10 06:28:48;;;;;;;37.78;30.42;;;;;;;;;;5032802;28;20029;-59
2021/07/10 06:31:14;;;;;;;36.53;29.65;;;;;;;;;;5032425;28;20036;-58
2021/07/10 06:33:40;;;;;;;38.78;28.85;;;;;;;;;;5032520;28;20044;-66
2021/07/10 06:36:06;;;;;;;39.13;31.08;;;;;;;;;;5014449;28;20026;-61
2021/07/10 06:38:32;;;;;;;37.38;29.73;;;;;;;;;;5014479;28;20120;-61
2021/07/10 06:40:58;;;;;;;35.25;27.80;;;;;;;;;;5014480;28;20026;-61
2021/07/10 06:43:24;;;;;;;36.40;28.83;;;;;;;;;;5014621;28;20144;-61
2021/07/10 06:45:49;;;;;;;38.45;30.35;;;;;;;;;;5014284;28;20048;-61
2021/07/10 06:48:15;;;;;;;41.65;32.08;;;;;;;;;;5014512;28;20083;-61
2021/07/10 06:50:42;;;;;;;37.25;30.58;;;;;;;;;;5032092;28;20021;-61
2021/07/10 06:53:08;;;;;;;38.80;29.85;;;;;;;;;;5014466;28;20370;-58
2021/07/10 06:55:34;;;;;;;41.42;31.90;;;;;;;;;;5031949;28;20040;-58
2021/07/10 06:58:00;;;;;;;43.17;34.30;;;;;;;;;;5014557;28;20041;-58
2021/07/10 07:00:26;;;;;;;40.92;31.90;;;;;;;;;;5031269;28;20097;-58
2021/07/10 07:02:52;;;;;;;39.63;32.05;;;;;;;;;;5014738;28;20047;-57
2021/07/10 07:05:18;;;;;;;40.92;33.95;;;;;;;;;;5014067;28;20018;-51
2021/07/10 07:07:44;;;;;;;40.65;31.67;;;;;;;;;;5014581;28;20103;-56
2021/07/10 07:10:11;;;;;;;41.13;31.98;;;;;;;;;;5014222;28;20504;-60
2021/07/10 07:12:38;;;;;;;38.88;29.00;;;;;;;;;;5014393;28;20084;-60
2021/07/10 07:15:06;;;;;;;38.50;30.80;;;;;;;;;;5032061;28;20392;-60
2021/07/10 07:17:32;;;;;;;37.75;29.95;;;;;;;;;;5014492;28;20120;-60
2021/07/10 07:19:58;;;;;;;37.15;30.63;;;;;;;;;;5014267;28;20052;-59
2021/07/10 07:22:24;;;;;;;43.17;31.75;;;;;;;;;;5014066;28;20669;-60
2021/07/10 07:24:50;;;;;;;40.50;31.35;;;;;;;;;;5013979;28;20025;-59
2021/07/10 07:27:16;;;;;;;37.03;31.25;;;;;;;;;;5032047;28;20041;-61
2021/07/10 07:29:42;;;;;;;41.30;33.17;;;;;;;;;;5031801;28;20029;-61
2021/07/10 07:32:08;;;;;;;41.47;33.30;;;;;;;;;;5031931;28;20549;-61
2021/07/10 07:34:34;;;;;;;38.40;31.88;;;;;;;;;;5013902;28;20511;-58
2021/07/10 07:37:00;;;;;;;37.55;31.70;;;;;;;;;;5013946;28;20051;-60
2021/07/10 07:39:26;;;;;;;39.45;33.63;;;;;;;;;;5031412;28;20389;-60
2021/07/10 07:41:52;;;;;;;37.05;30.40;;;;;;;;;;5046820;22;20045;-56
2021/07/10 07:44:18;;;;;;;38.05;31.65;;;;;;;;;;5014110;28;20055;-58
2021/07/10 07:46:44;;;;;;;40.83;31.90;;;;;;;;;;5031064;28;20393;-55
2021/07/10 07:49:10;;;;;;;40.45;33.80;;;;;;;;;;5032045;28;20413;-62
2021/07/10 07:51:36;;;;;;;39.92;34.05;;;;;;;;;;5014291;28;20029;-55
2021/07/10 07:54:02;;;;;;;37.95;32.05;;;;;;;;;;5031702;28;20037;-52
2021/07/10 07:56:28;;;;;;;36.05;31.65;;;;;;;;;;5031436;28;20029;-53
2021/07/10 07:58:54;;;;;;;38.63;32.67;;;;;;;;;;5013999;28;20024;-53
2021/07/10 08:01:20;;;;;;;44.35;35.60;;;;;;;;;;5013571;28;20477;-51
2021/07/10 08:03:47;;;;;;;41.10;33.83;;;;;;;;;;5031534;28;20021;-53
2021/07/10 08:06:14;;;;;;;39.13;31.15;;;;;;;;;;5031509;28;20017;-51
2021/07/10 08:08:40;;;;;;;30.98;25.55;;;;;;;;;;5014251;28;20041;-56
2021/07/10 08:11:07;;;;;;;29.17;25.15;;;;;;;;;;5031211;28;20455;-56
2021/07/10 08:13:34;;;;;;;34.97;25.83;;;;;;;;;;5034787;28;20029;-52
2021/07/10 08:16:00;;;;;;;31.73;25.40;;;;;;;;;;5035236;28;20026;-55
2021/07/10 08:18:26;;;;;;;32.22;25.75;;;;;;;;;;5034887;28;20037;-54
2021/07/10 08:20:52;;;;;;;35.58;26.15;;;;;;;;;;5035038;28;20052;-53
2021/07/10 08:23:18;;;;;;;31.63;27.02;;;;;;;;;;5034939;28;20061;-50
2021/07/10 08:25:46;;;;;;;33.38;26.20;;;;;;;;;;5017445;28;20053;-53
2021/07/10 08:28:12;;;;;;;30.23;24.45;;;;;;;;;;5035284;28;20457;-56
2021/07/10 08:30:38;;;;;;;28.73;22.80;;;;;;;;;;5017366;28;20029;-55
2021/07/10 08:33:04;;;;;;;26.20;20.45;;;;;;;;;;5034679;28;20465;-55
2021/07/10 08:35:30;;;;;;;26.17;20.85;;;;;;;;;;5016868;28;20112;-53
2021/07/10 08:37:56;;;;;;;26.27;19.95;;;;;;;;;;5017081;28;20481;-51
2021/07/10 08:40:22;;;;;;;26.85;21.42;;;;;;;;;;5017056;28;20027;-54
2021/07/10 08:42:49;;;;;;;27.15;20.80;;;;;;;;;;5034613;28;20025;-56
2021/07/10 08:45:15;;;;;;;26.88;21.02;;;;;;;;;;5016402;28;20202;-56
2021/07/10 08:47:42;;;;;;;25.63;19.85;;;;;;;;;;5033745;28;20049;-58
2021/07/10 08:50:10;;;;;;;25.70;20.85;;;;;;;;;;5015836;28;20113;-54
2021/07/10 08:52:36;;;;;;;27.60;22.10;;;;;;;;;;5034357;28;20030;-49
2021/07/10 08:55:07;;;;;;;24.50;18.88;;;;;;;;;;5016450;28;20029;-52
2021/07/10 08:57:36;;;;;;;26.63;20.88;;;;;;;;;;5033984;28;20029;-54
2021/07/10 09:00:14;;;;;;;29.02;22.52;;;;;;;;;;5016677;28;20444;-51
2021/07/10 09:02:42;;;;;;;30.10;22.25;;;;;;;;;;5016506;28;20170;-54
2021/07/10 09:05:09;;;;;;;26.05;20.98;;;;;;;;;;5015792;28;20030;-57
2021/07/10 09:07:55;;;;;;;30.42;23.02;;;;;;;;;;4997175;28;20038;-53
2021/07/10 09:10:50;;;;;;;26.35;20.70;;;;;;;;;;4996735;28;20030;-57
2021/07/10 09:13:16;;;;;;;24.13;19.40;;;;;;;;;;4997508;28;20045;-55
2021/07/10 09:15:44;;;;;;;23.27;17.75;;;;;;;;;;4996610;28;20056;-57
2021/07/10 09:18:11;;;;;;;21.55;17.83;;;;;;;;;;5014083;28;20456;-55
2021/07/10 09:20:38;;;;;;;22.73;16.65;;;;;;;;;;4996796;28;20021;-53
2021/07/10 09:23:22;;;;;;;21.33;16.48;;;;;;;;;;5013443;28;20608;-56
2021/07/10 09:25:48;;;;;;;24.25;17.60;;;;;;;;;;4996258;28;20076;-56
2021/07/10 09:28:14;;;;;;;22.73;18.50;;;;;;;;;;5014082;28;20749;-55
2021/07/10 09:30:43;;;;;;;20.63;15.98;;;;;;;;;;5014034;28;20117;-51
2021/07/10 09:33:12;;;;;;;20.65;16.60;;;;;;;;;;5013879;28;20033;-55
2021/07/10 09:35:48;;;;;;;21.40;16.95;;;;;;;;;;5013414;28;20037;-53
2021/07/10 09:38:22;;;;;;;20.27;16.10;;;;;;;;;;4996228;28;20026;-49
2021/07/10 09:41:03;;;;;;;21.60;16.70;;;;;;;;;;5013841;28;20478;-56
2021/07/10 09:43:30;;;;;;;19.90;16.27;;;;;;;;;;5013652;28;20034;-55
2021/07/10 09:45:57;;;;;;;19.10;15.88;;;;;;;;;;5013365;28;20026;-59
2021/07/10 09:48:27;;;;;;;20.20;16.05;;;;;;;;;;4995926;28;20091;-52
2021/07/10 09:51:13;;;;;;;19.98;16.60;;;;;;;;;;5013857;28;20022;-53
2021/07/10 09:53:39;;;;;;;20.80;16.38;;;;;;;;;;4995919;28;20034;-56
2021/07/10 09:56:14;;;;;;;19.95;15.90;;;;;;;;;;5012896;28;20036;-58
2021/07/10 09:58:40;;;;;;;20.05;16.10;;;;;;;;;;5013548;28;20021;-57
2021/07/10 10:01:24;;;;;;;20.98;15.95;;;;;;;;;;5013628;28;20026;-57
2021/07/10 10:03:50;;;;;;;19.92;15.40;;;;;;;;;;4996070;28;20033;-58
2021/07/10 10:06:33;;;;;;;19.17;15.93;;;;;;;;;;4995799;28;20121;-55
2021/07/10 10:08:59;;;;;;;21.63;16.75;;;;;;;;;;5013619;28;20080;-58
2021/07/10 10:11:26;;;;;;;19.50;15.68;;;;;;;;;;5013228;28;20112;-58
2021/07/10 10:13:56;;;;;;;19.52;16.15;;;;;;;;;;4995285;28;20088;-54
2021/07/10 10:16:23;;;;;;;21.08;16.60;;;;;;;;;;4995213;28;20022;-55
2021/07/10 10:18:49;;;;;;;19.55;16.35;;;;;;;;;;5012879;28;20033;-53
2021/07/10 10:21:15;;;;;;;19.00;15.73;;;;;;;;;;4995027;28;20181;-51
2021/07/10 10:23:41;;;;;;;19.95;16.67;;;;;;;;;;5013095;28;20462;-54
2021/07/10 10:26:09;;;;;;;19.75;16.80;;;;;;;;;;4995457;28;20168;-55
2021/07/10 10:28:35;;;;;;;20.92;16.88;;;;;;;;;;5013638;28;20030;-53
2021/07/10 10:31:01;;;;;;;20.88;16.60;;;;;;;;;;5022861;28;20036;-54
2021/07/10 10:33:27;;;;;;;20.35;15.65;;;;;;;;;;5017827;28;20117;-54
2021/07/10 10:35:54;;;;;;;18.50;15.52;;;;;;;;;;5012838;28;20057;-55
2021/07/10 10:38:21;;;;;;;18.90;16.30;;;;;;;;;;5012115;28;20061;-53
2021/07/10 10:40:48;;;;;;;21.35;16.83;;;;;;;;;;5011836;28;20176;-54
2021/07/10 10:43:15;;;;;;;20.17;17.23;;;;;;;;;;5013074;28;20068;-55
2021/07/10 10:45:42;;;;;;;19.02;15.95;;;;;;;;;;5011683;28;20105;-54
2021/07/10 10:48:08;;;;;;;19.55;16.88;;;;;;;;;;5011664;28;20396;-52
2021/07/10 10:50:43;;;;;;;19.63;16.70;;;;;;;;;;5011797;28;20053;-62
2021/07/10 10:53:20;;;;;;;19.75;17.10;;;;;;;;;;5012868;28;20036;-56
2021/07/10 10:55:47;;;;;;;20.90;16.42;;;;;;;;;;5011351;28;20029;-57
2021/07/10 10:58:16;;;;;;;19.90;16.67;;;;;;;;;;5013108;28;20025;-53
2021/07/10 11:00:43;;;;;;;19.38;16.65;;;;;;;;;;5011185;28;20394;-57
2021/07/10 11:03:10;;;;;;;19.08;16.70;;;;;;;;;;5011410;28;20037;-58
2021/07/10 11:05:47;;;;;;;19.25;17.15;;;;;;;;;;5012160;28;20026;-56
2021/07/10 11:08:19;;;;;;;19.25;16.33;;;;;;;;;;5012840;28;20053;-55
2021/07/10 11:10:46;;;;;;;19.88;16.65;;;;;;;;;;4995845;28;20030;-55
2021/07/10 11:13:29;;;;;;;18.40;15.63;;;;;;;;;;4994980;28;20061;-52
2021/07/10 11:16:12;;;;;;;19.63;15.68;;;;;;;;;;4994876;28;20029;-56
2021/07/10 11:18:57;;;;;;;20.55;17.02;;;;;;;;;;5017462;28;20030;-50
2021/07/10 11:21:37;;;;;;;18.52;15.70;;;;;;;;;;5020728;28;20025;-53
2021/07/10 11:24:19;;;;;;;18.63;15.45;;;;;;;;;;5013209;28;20026;-54
2021/07/10 11:26:54;;;;;;;19.10;15.35;;;;;;;;;;5012284;28;20033;-56
2021/07/10 11:29:23;;;;;;;19.80;15.32;;;;;;;;;;5011158;28;20030;-53
2021/07/10 11:31:51;;;;;;;18.67;15.55;;;;;;;;;;5011205;28;20111;-57
2021/07/10 11:34:37;;;;;;;18.50;15.70;;;;;;;;;;5011194;28;20022;-58
2021/07/10 11:37:16;;;;;;;18.15;15.18;;;;;;;;;;4977702;28;20033;-53
2021/07/10 11:39:47;;;;;;;19.58;16.00;;;;;;;;;;5010734;28;20497;-58
2021/07/10 11:42:28;;;;;;;19.48;16.33;;;;;;;;;;5012634;28;20056;-51
2021/07/10 11:45:18;;;;;;;20.13;16.88;;;;;;;;;;5012350;28;20046;-56
2021/07/10 11:47:50;;;;;;;21.92;16.40;;;;;;;;;;5014367;28;20030;-56
2021/07/10 11:50:19;;;;;;;19.90;16.45;;;;;;;;;;5015831;28;20022;-58
2021/07/10 11:52:54;;;;;;;19.17;15.93;;;;;;;;;;5014715;28;20033;-52
2021/07/10 11:55:21;;;;;;;19.77;16.15;;;;;;;;;;5015643;28;20036;-54
2021/07/10 11:57:47;;;;;;;21.38;15.85;;;;;;;;;;5014852;28;20037;-56
2021/07/10 12:00:14;;;;;;;20.05;16.85;;;;;;;;;;5015991;28;20018;-56
2021/07/10 12:02:41;;;;;;;19.50;16.55;;;;;;;;;;5015815;28;20092;-56
2021/07/10 12:05:10;;;;;;;21.58;17.42;;;;;;;;;;5014186;28;20032;-54
2021/07/10 12:07:36;;;;;;;19.38;17.27;;;;;;;;;;5015702;28;20022;-57
2021/07/10 12:10:04;;;;;;;19.73;17.10;;;;;;;;;;5015854;28;20037;-55
2021/07/10 12:12:30;;;;;;;20.08;16.75;;;;;;;;;;5015830;28;20030;-55
2021/07/10 12:14:57;;;;;;;21.85;17.17;;;;;;;;;;5015853;28;20033;-56
2021/07/10 12:17:24;;;;;;;19.92;16.58;;;;;;;;;;4997639;28;20022;-57
2021/07/10 12:19:51;;;;;;;20.33;16.13;;;;;;;;;;4997614;28;20026;-54
2021/07/10 12:22:17;;;;;;;19.17;16.77;;;;;;;;;;4997602;28;20022;-55
2021/07/10 12:24:44;;;;;;;22.05;17.83;;;;;;;;;;4997693;28;20030;-54
2021/07/10 12:27:11;;;;;;;19.13;17.00;;;;;;;;;;5014805;28;20033;-50
2021/07/10 12:29:37;;;;;;;20.38;17.30;;;;;;;;;;5000348;28;20033;-57
2021/07/10 12:32:04;;;;;;;21.15;17.83;;;;;;;;;;5015113;28;20082;-52
2021/07/10 12:34:30;;;;;;;18.92;16.20;;;;;;;;;;5015329;28;20052;-53
2021/07/10 12:36:59;;;;;;;22.45;16.33;;;;;;;;;;5014871;28;20034;-54
2021/07/10 12:39:28;;;;;;;21.05;16.33;;;;;;;;;;5015227;28;20026;-56
2021/07/10 12:41:54;;;;;;;20.80;16.92;;;;;;;;;;5015051;28;20112;-58
2021/07/10 12:44:24;;;;;;;19.98;16.63;;;;;;;;;;5013825;28;20025;-53
2021/07/10 12:46:50;;;;;;;20.30;17.65;;;;;;;;;;5017297;28;20037;-55
2021/07/10 12:49:16;;;;;;;19.27;15.95;;;;;;;;;;5026908;28;20021;-56
2021/07/10 12:51:42;;;;;;;18.88;16.88;;;;;;;;;;5030065;28;20017;-57
2021/07/10 12:54:27;;;;;;;19.77;17.08;;;;;;;;;;5033133;28;20025;-56
2021/07/10 12:56:55;;;;;;;20.67;16.75;;;;;;;;;;5034059;28;20030;-58
2021/07/10 12:59:21;;;;;;;19.55;17.45;;;;;;;;;;5032163;28;20033;-60
2021/07/10 13:01:51;;;;;;;19.98;17.67;;;;;;;;;;5033297;28;20076;-58
2021/07/10 13:04:17;;;;;;;19.98;17.85;;;;;;;;;;5034449;28;20034;-58
2021/07/10 13:06:44;;;;;;;20.70;18.50;;;;;;;;;;5034092;28;20026;-56
2021/07/10 13:09:10;;;;;;;20.65;18.45;;;;;;;;;;5034536;28;20029;-58
2021/07/10 13:11:46;;;;;;;20.67;18.27;;;;;;;;;;5033001;28;20029;-56
2021/07/10 13:14:19;;;;;;;20.50;18.30;;;;;;;;;;5033938;28;20026;-54
2021/07/10 13:16:45;;;;;;;20.38;18.17;;;;;;;;;;5033731;28;20025;-54
2021/07/10 13:19:11;;;;;;;22.95;18.80;;;;;;;;;;5032318;28;20499;-55
2021/07/10 13:21:37;;;;;;;20.90;18.70;;;;;;;;;;5032715;28;20029;-58
2021/07/10 13:24:03;;;;;;;21.92;18.95;;;;;;;;;;5033913;28;20473;-53
2021/07/10 13:26:32;;;;;;;21.02;18.92;;;;;;;;;;5024747;28;20032;-50
2021/07/10 13:29:17;;;;;;;21.42;19.13;;;;;;;;;;5022177;28;20025;-58
2021/07/10 13:31:44;;;;;;;21.90;19.63;;;;;;;;;;5021768;28;20057;-57
2021/07/10 13:34:23;;;;;;;20.95;18.85;;;;;;;;;;5019242;28;20029;-60
2021/07/10 13:36:50;;;;;;;20.45;18.35;;;;;;;;;;5021368;28;20470;-56
2021/07/10 13:39:18;;;;;;;21.27;18.88;;;;;;;;;;5022870;28;20385;-52
2021/07/10 13:41:54;;;;;;;21.65;19.45;;;;;;;;;;5030687;28;20029;-52
2021/07/10 13:44:22;;;;;;;21.42;19.23;;;;;;;;;;5033707;28;20657;-54
2021/07/10 13:46:48;;;;;;;21.43;19.23;;;;;;;;;;5032102;28;20108;-55
2021/07/10 13:49:18;;;;;;;22.27;19.67;;;;;;;;;;5080761;22;20064;-62
2021/07/10 13:51:48;;;;;;;21.60;19.40;;;;;;;;;;5091991;28;20538;-64
2021/07/10 13:54:30;;;;;;;21.30;19.08;;;;;;;;;;5091775;28;20035;-64
2021/07/10 13:57:08;;;;;;;21.58;19.33;;;;;;;;;;5092946;28;20020;-64
2021/07/10 13:59:34;;;;;;;21.30;19.05;;;;;;;;;;5091743;28;20123;-64
2021/07/10 14:02:00;;;;;;;21.20;18.23;;;;;;;;;;5092827;28;20066;-63
2021/07/10 14:04:26;;;;;;;20.55;18.35;;;;;;;;;;5080032;28;20033;-62
2021/07/10 14:06:52;;;;;;;20.60;18.40;;;;;;;;;;5072363;28;20052;-64
2021/07/10 14:09:18;;;;;;;20.52;18.33;;;;;;;;;;5072457;28;20048;-62
2021/07/10 14:11:44;;;;;;;20.42;18.33;;;;;;;;;;5072718;28;20021;-62
2021/07/10 14:14:10;;;;;;;21.02;18.50;;;;;;;;;;5072523;28;20520;-61
2021/07/10 14:16:36;;;;;;;21.13;18.52;;;;;;;;;;5072291;28;20055;-59
2021/07/10 14:19:02;;;;;;;20.70;18.60;;;;;;;;;;5072243;28;20453;-59
2021/07/10 14:21:28;;;;;;;19.95;17.95;;;;;;;;;;5072266;28;20024;-61